Time;durP1;ratioP1;P1;durP2;ratioP2;P2;SDS_P1;SDS_P2;PMS_P1;PMS_P2;Temp;Humidity;BMP_temperature;BMP_pressure;BME280_temperature;BME280_humidity;BME280_pressure;Samples;Min_cycle;Max_cycle;Signal;HPM_P1;HPM_P2
2024/02/14 00:01:01;;;;;;;9.00;5.20;;;;;;;5.41;76.78;100818.28;5091200;28;20313;-57
2024/02/14 00:03:28;;;;;;;9.03;4.80;;;;;;;5.40;76.15;100831.91;5091142;28;20205;-55
2024/02/14 00:05:57;;;;;;;7.07;4.90;;;;;;;5.43;76.76;100826.00;5085569;28;20304;-55
2024/02/14 00:08:25;;;;;;;9.13;4.57;;;;;;;5.41;76.86;100830.19;5095569;28;20201;-55
2024/02/14 00:10:53;;;;;;;12.20;5.23;;;;;;;5.39;76.47;100835.28;5088484;28;20667;-56
2024/02/14 00:13:22;;;;;;;8.67;5.03;;;;;;;5.36;77.25;100840.31;5088795;28;20243;-56
2024/02/14 00:15:51;;;;;;;7.93;5.17;;;;;;;5.36;77.25;100845.44;5090563;28;20283;-56
2024/02/14 00:18:20;;;;;;;9.27;5.57;;;;;;;5.36;77.19;100839.47;5091446;28;20631;-54
2024/02/14 00:20:49;;;;;;;8.57;5.20;;;;;;;5.33;77.41;100845.38;5086834;28;20734;-54
2024/02/14 00:23:17;;;;;;;10.23;5.53;;;;;;;5.38;77.60;100845.50;5086290;28;20205;-56
2024/02/14 00:25:45;;;;;;;9.27;5.00;;;;;;;5.37;76.91;100849.72;5092515;28;20212;-55
2024/02/14 00:28:13;;;;;;;8.03;5.10;;;;;;;5.42;76.39;100849.84;5090699;28;20208;-53
2024/02/14 00:30:42;;;;;;;9.33;5.03;;;;;;;5.43;77.34;100849.84;5083525;28;20205;-52
2024/02/14 00:33:10;;;;;;;10.57;4.83;;;;;;;5.48;76.75;100849.97;5087821;28;20211;-57
2024/02/14 00:35:39;;;;;;;9.13;4.87;;;;;;;5.52;76.97;100846.63;5090850;28;20196;-56
2024/02/14 00:38:08;;;;;;;9.30;4.80;;;;;;;5.55;76.03;100851.81;5087132;28;20304;-56
2024/02/14 00:40:36;;;;;;;8.10;5.30;;;;;;;5.56;76.43;100856.97;5087756;28;20207;-57
2024/02/14 00:43:04;;;;;;;8.23;4.93;;;;;;;5.54;76.40;100856.06;5088754;28;20269;-54
2024/02/14 00:45:32;;;;;;;7.63;5.03;;;;;;;5.56;76.63;100848.47;5090761;28;20208;-55
2024/02/14 00:48:03;;;;;;;10.47;5.10;;;;;;;5.55;76.20;100850.13;5091098;28;20255;-56
2024/02/14 00:50:33;;;;;;;8.90;4.93;;;;;;;5.58;76.87;100851.88;5090793;28;20234;-57
2024/02/14 00:53:01;;;;;;;10.63;5.03;;;;;;;5.57;77.02;100853.59;5089785;28;20200;-54
2024/02/14 00:55:29;;;;;;;10.93;5.90;;;;;;;5.60;76.79;100855.34;5090217;28;20245;-55
2024/02/14 00:57:57;;;;;;;7.50;5.30;;;;;;;5.63;76.96;100850.28;5095513;28;20205;-56
2024/02/14 01:00:25;;;;;;;10.23;5.60;;;;;;;5.62;76.58;100850.25;5085740;28;20204;-55
2024/02/14 01:02:53;;;;;;;10.20;4.60;;;;;;;5.64;76.59;100849.47;5085565;28;20285;-57
2024/02/14 01:05:22;;;;;;;7.73;5.10;;;;;;;5.64;76.37;100857.16;5090233;28;20212;-54
2024/02/14 01:07:50;;;;;;;8.10;4.97;;;;;;;5.62;76.51;100853.69;5088776;28;20649;-53
2024/02/14 01:10:19;;;;;;;7.77;5.40;;;;;;;5.61;76.38;100862.19;5089632;28;20220;-54
2024/02/14 01:12:46;;;;;;;8.53;5.40;;;;;;;5.58;76.09;100859.56;5077288;28;20237;-52
2024/02/14 01:15:15;;;;;;;9.37;5.23;;;;;;;5.56;76.53;100866.34;5087463;28;20235;-55
2024/02/14 01:17:42;;;;;;;10.23;5.50;;;;;;;5.51;76.13;100855.13;5084532;28;20803;-52
2024/02/14 01:20:12;;;;;;;13.03;5.90;;;;;;;5.48;76.42;100866.16;5084576;28;20204;-53
2024/02/14 01:22:41;;;;;;;9.30;5.77;;;;;;;5.47;76.79;100864.44;5090698;28;20653;-54
2024/02/14 01:25:10;;;;;;;11.80;5.90;;;;;;;5.45;77.12;100866.09;5090426;28;20235;-58
2024/02/14 01:27:38;;;;;;;10.53;5.50;;;;;;;5.42;76.70;100860.91;5089658;28;20209;-55
2024/02/14 01:30:07;;;;;;;8.07;5.70;;;;;;;5.40;76.90;100865.13;5082308;28;20288;-54
2024/02/14 01:32:35;;;;;;;12.37;5.93;;;;;;;5.36;77.09;100859.91;5088983;28;20566;-55
2024/02/14 01:35:04;;;;;;;9.07;5.80;;;;;;;5.29;77.34;100858.91;5085849;28;20205;-56
2024/02/14 01:37:32;;;;;;;11.13;6.13;;;;;;;5.25;77.47;100863.06;5083923;28;20556;-56
2024/02/14 01:40:03;;;;;;;9.50;6.13;;;;;;;5.23;78.14;100858.78;5093472;28;20693;-56
2024/02/14 01:42:30;;;;;;;10.47;6.27;;;;;;;5.19;78.14;100857.84;5098923;28;20306;-54
2024/02/14 01:44:58;;;;;;;9.73;6.00;;;;;;;5.18;77.90;100860.34;5093686;28;20236;-56
2024/02/14 01:47:27;;;;;;;9.37;6.47;;;;;;;5.16;78.17;100856.91;5092617;28;20669;-55
2024/02/14 01:49:55;;;;;;;10.43;5.83;;;;;;;5.13;77.83;100862.81;5088138;28;20236;-55
2024/02/14 01:52:23;;;;;;;12.80;6.27;;;;;;;5.10;77.82;100865.28;5092451;28;20230;-54
2024/02/14 01:54:52;;;;;;;11.07;6.43;;;;;;;5.07;78.04;100872.88;5090894;28;20207;-55
2024/02/14 01:57:22;;;;;;;14.63;6.70;;;;;;;5.00;79.07;100861.63;5093538;28;20684;-59
2024/02/14 01:59:52;;;;;;;14.23;7.27;;;;;;;4.97;78.41;100870.91;5092565;28;20219;-52
2024/02/14 02:02:20;;;;;;;13.10;6.80;;;;;;;4.89;79.50;100870.72;5085884;28;20208;-56
2024/02/14 02:04:51;;;;;;;10.07;6.23;;;;;;;4.80;79.56;100867.97;5093280;28;20652;-57
2024/02/14 02:07:20;;;;;;;11.47;6.63;;;;;;;4.75;80.46;100883.16;5085219;28;20748;-56
2024/02/14 02:09:48;;;;;;;13.83;7.20;;;;;;;4.69;79.83;100880.44;5091287;28;20291;-54
2024/02/14 02:12:16;;;;;;;11.80;6.90;;;;;;;4.58;80.73;100869.09;5089375;28;20259;-56
2024/02/14 02:14:45;;;;;;;11.23;7.13;;;;;;;4.63;80.43;100885.38;5082100;28;20328;-53
2024/02/14 02:17:13;;;;;;;15.43;7.03;;;;;;;4.60;82.29;100886.19;5090549;28;20209;-56
2024/02/14 02:19:42;;;;;;;12.40;7.20;;;;;;;4.59;82.31;100881.03;5093035;28;20207;-55
2024/02/14 02:22:10;;;;;;;11.20;6.87;;;;;;;4.56;81.26;100883.50;5093028;28;20211;-56
2024/02/14 02:24:40;;;;;;;10.67;7.13;;;;;;;4.56;82.88;100883.50;5092790;28;20250;-54
2024/02/14 02:27:08;;;;;;;12.73;7.40;;;;;;;4.55;82.77;100886.88;5092636;28;20264;-54
2024/02/14 02:29:37;;;;;;;13.73;7.10;;;;;;;4.52;82.42;100882.53;5085016;28;20197;-53
2024/02/14 02:32:06;;;;;;;10.57;6.57;;;;;;;4.52;82.03;100886.78;5093419;28;20209;-56
2024/02/14 02:34:34;;;;;;;11.37;6.90;;;;;;;4.51;82.00;100891.03;5088285;28;20205;-60
2024/02/14 02:37:06;;;;;;;13.63;7.40;;;;;;;4.48;82.77;100884.97;5093205;28;20595;-54
2024/02/14 02:39:35;;;;;;;10.00;7.20;;;;;;;4.47;82.05;100884.13;5088463;28;20274;-57
2024/02/14 02:42:05;;;;;;;12.53;7.47;;;;;;;4.47;83.64;100890.91;5088443;28;20266;-59
2024/02/14 02:44:33;;;;;;;9.50;6.93;;;;;;;4.47;82.91;100889.22;5091818;28;20564;-55
2024/02/14 02:47:01;;;;;;;12.77;7.57;;;;;;;4.49;82.71;100891.81;5089291;28;20266;-54
2024/02/14 02:49:29;;;;;;;12.77;7.60;;;;;;;4.52;83.56;100891.91;5090438;28;20656;-56
2024/02/14 02:51:57;;;;;;;12.80;7.10;;;;;;;4.55;82.50;100897.09;5096489;28;20197;-57
2024/02/14 02:54:25;;;;;;;13.03;7.40;;;;;;;4.51;83.03;100895.28;5091803;28;20211;-54
2024/02/14 02:56:53;;;;;;;10.37;6.60;;;;;;;4.48;83.20;100900.28;5092091;28;20200;-59
2024/02/14 02:59:23;;;;;;;10.67;6.97;;;;;;;4.47;82.73;100893.47;5085457;28;20212;-57
2024/02/14 03:01:51;;;;;;;14.37;7.27;;;;;;;4.47;83.02;100893.47;5092785;28;20568;-52
2024/02/14 03:04:19;;;;;;;12.53;6.83;;;;;;;4.45;83.38;100890.00;5087956;28;20200;-55
2024/02/14 03:06:48;;;;;;;13.17;7.57;;;;;;;4.43;83.91;100896.75;5089054;28;20253;-53
2024/02/14 03:09:17;;;;;;;13.53;7.57;;;;;;;4.41;83.57;100898.41;5092463;28;20584;-55
2024/02/14 03:11:47;;;;;;;16.67;7.57;;;;;;;4.40;83.13;100912.00;5091287;28;20240;-56
2024/02/14 03:14:15;;;;;;;15.33;7.70;;;;;;;4.34;84.00;100903.34;5092343;28;20529;-53
2024/02/14 03:16:44;;;;;;;15.57;7.63;;;;;;;4.35;83.91;100909.31;5091829;28;20315;-58
2024/02/14 03:19:12;;;;;;;15.23;7.60;;;;;;;4.31;83.64;100910.06;5092155;28;20703;-53
2024/02/14 03:21:40;;;;;;;13.00;7.47;;;;;;;4.27;82.87;100910.78;5086393;28;20209;-55
2024/02/14 03:24:09;;;;;;;14.23;8.27;;;;;;;4.24;84.49;100920.91;5090107;28;20236;-58
2024/02/14 03:26:38;;;;;;;15.20;8.47;;;;;;;4.20;83.33;100924.16;5091531;28;20223;-62
2024/02/14 03:29:06;;;;;;;14.00;8.87;;;;;;;4.16;84.28;100928.34;5091140;28;20595;-57
2024/02/14 03:31:34;;;;;;;15.87;9.20;;;;;;;4.13;84.70;100924.84;5091554;28;20200;-55
2024/02/14 03:34:03;;;;;;;15.27;9.23;;;;;;;4.11;84.25;100923.09;5089564;28;20745;-56
2024/02/14 03:36:32;;;;;;;12.87;9.37;;;;;;;4.07;85.50;100925.53;5091584;28;20208;-60
2024/02/14 03:39:03;;;;;;;15.43;9.30;;;;;;;4.06;85.80;100926.34;5091532;28;20228;-54
2024/02/14 03:41:31;;;;;;;14.80;10.40;;;;;;;4.04;84.66;100927.97;5088615;28;20200;-58
2024/02/14 03:44:01;;;;;;;15.53;10.37;;;;;;;4.03;85.95;100931.34;5090271;28;20205;-56
2024/02/14 03:46:30;;;;;;;17.23;10.27;;;;;;;4.02;86.16;100927.94;5091680;28;20216;-55
2024/02/14 03:48:58;;;;;;;13.77;9.37;;;;;;;3.96;86.08;100924.34;5086298;28;20695;-56
2024/02/14 03:51:27;;;;;;;21.30;10.57;;;;;;;3.95;85.85;100932.81;5091219;28;20197;-54
2024/02/14 03:53:55;;;;;;;18.27;10.87;;;;;;;3.93;85.58;100926.78;5091481;28;20197;-55
2024/02/14 03:56:23;;;;;;;15.77;10.30;;;;;;;3.90;87.13;100925.00;5090979;28;20652;-55
2024/02/14 03:58:51;;;;;;;18.40;10.47;;;;;;;3.90;87.20;100929.25;5087394;28;20205;-54
2024/02/14 04:01:19;;;;;;;16.30;10.67;;;;;;;3.91;86.52;100938.66;5091215;28;20566;-54
2024/02/14 04:03:49;;;;;;;17.57;10.27;;;;;;;3.92;86.10;100940.38;5091474;28;20218;-52
2024/02/14 04:06:17;;;;;;;18.03;10.80;;;;;;;3.91;86.12;100942.06;5088549;28;20209;-54
2024/02/14 04:08:47;;;;;;;17.27;10.70;;;;;;;3.90;87.51;100936.91;5086187;28;20205;-53
2024/02/14 04:11:15;;;;;;;15.27;10.17;;;;;;;3.87;87.74;100933.47;5090297;28;20720;-56
2024/02/14 04:13:43;;;;;;;17.23;10.13;;;;;;;3.87;87.33;100945.34;5087236;28;20274;-55
2024/02/14 04:16:11;;;;;;;15.83;10.37;;;;;;;3.85;86.37;100945.28;5091101;28;20209;-51
2024/02/14 04:18:44;;;;;;;16.93;10.30;;;;;;;3.82;85.86;100950.28;5090833;28;20246;-54
2024/02/14 04:21:12;;;;;;;18.77;10.27;;;;;;;3.80;86.51;100943.44;5090818;28;20216;-54
2024/02/14 04:23:40;;;;;;;20.87;10.27;;;;;;;3.78;87.40;100950.16;5090844;28;20212;-55
2024/02/14 04:26:10;;;;;;;19.63;10.70;;;;;;;3.75;86.59;100945.81;5086698;28;20292;-54
2024/02/14 04:28:40;;;;;;;16.57;10.53;;;;;;;3.73;87.25;100949.16;5082709;28;20304;-57
2024/02/14 04:31:09;;;;;;;19.77;10.37;;;;;;;3.72;88.15;100947.41;5087095;28;20220;-53
2024/02/14 04:33:37;;;;;;;19.67;10.80;;;;;;;3.68;87.06;100943.88;5090604;28;20287;-59
2024/02/14 04:36:06;;;;;;;17.73;10.77;;;;;;;3.63;87.19;100951.41;5090559;28;20204;-56
2024/02/14 04:38:34;;;;;;;17.17;10.00;;;;;;;3.58;88.09;100947.84;5090734;28;20197;-54
2024/02/14 04:41:02;;;;;;;16.77;9.90;;;;;;;3.55;88.80;100942.66;5090695;28;20288;-54
2024/02/14 04:43:32;;;;;;;17.17;10.93;;;;;;;3.54;88.54;100947.72;5087349;28;20201;-56
2024/02/14 04:46:00;;;;;;;17.27;10.93;;;;;;;3.57;88.51;100960.53;5085103;28;20295;-55
2024/02/14 04:48:28;;;;;;;18.67;10.97;;;;;;;3.60;87.30;100960.63;5091647;28;20211;-53
2024/02/14 04:50:56;;;;;;;19.07;10.53;;;;;;;3.61;87.33;100959.84;5090556;28;20208;-58
2024/02/14 04:53:24;;;;;;;19.10;10.87;;;;;;;3.60;88.32;100961.50;5091000;28;20653;-59
2024/02/14 04:55:53;;;;;;;19.50;11.30;;;;;;;3.59;89.08;100958.91;5090135;28;20208;-55
2024/02/14 04:58:21;;;;;;;15.90;10.50;;;;;;;3.58;87.68;100963.16;5089173;28;20295;-55
2024/02/14 05:00:50;;;;;;;19.17;11.97;;;;;;;3.57;86.89;100969.06;5090055;28;20196;-54
2024/02/14 05:03:18;;;;;;;21.20;11.17;;;;;;;3.57;88.01;100971.63;5082414;28;20209;-55
2024/02/14 05:05:46;;;;;;;17.90;10.40;;;;;;;3.56;87.78;100971.56;5101102;28;20201;-53
2024/02/14 05:08:15;;;;;;;15.80;10.57;;;;;;;3.56;87.22;100971.56;5091805;28;20243;-57
2024/02/14 05:10:43;;;;;;;19.53;10.20;;;;;;;3.56;87.02;100969.00;5094321;28;20208;-63
2024/02/14 05:13:12;;;;;;;14.67;9.50;;;;;;;3.52;87.93;100969.72;5094430;28;20275;-57
2024/02/14 05:15:40;;;;;;;19.23;10.87;;;;;;;3.53;86.79;100974.00;5090105;28;20232;-53
2024/02/14 05:18:09;;;;;;;16.07;8.77;;;;;;;3.53;87.70;100976.53;5088675;28;20236;-52
2024/02/14 05:20:39;;;;;;;18.03;9.50;;;;;;;3.54;86.80;100976.63;5092267;28;20276;-55
2024/02/14 05:23:07;;;;;;;15.23;9.33;;;;;;;3.55;87.39;100974.94;5094284;28;20200;-54
2024/02/14 05:25:35;;;;;;;20.23;9.60;;;;;;;3.59;87.21;100979.31;5094774;28;20207;-52
2024/02/14 05:28:03;;;;;;;15.93;9.43;;;;;;;3.59;88.19;100984.41;5093741;28;20258;-55
2024/02/14 05:30:31;;;;;;;15.07;9.60;;;;;;;3.58;87.27;100980.13;5087284;28;20208;-56
2024/02/14 05:33:00;;;;;;;13.30;8.53;;;;;;;3.57;86.79;100986.91;5088996;28;20204;-56
2024/02/14 05:35:30;;;;;;;15.33;8.93;;;;;;;3.56;87.33;100986.84;5094131;28;20209;-54
2024/02/14 05:37:58;;;;;;;15.20;8.77;;;;;;;3.55;87.01;100985.97;5087656;28;20193;-54
2024/02/14 05:40:26;;;;;;;14.97;9.43;;;;;;;3.56;87.06;100987.69;5091773;28;20572;-55
2024/02/14 05:42:55;;;;;;;14.73;9.40;;;;;;;3.55;86.41;100992.75;5091214;28;20573;-53
2024/02/14 05:45:23;;;;;;;17.50;9.70;;;;;;;3.54;86.23;100991.03;5093508;28;20205;-60
2024/02/14 05:47:52;;;;;;;18.00;8.87;;;;;;;3.52;85.81;100988.41;5095498;28;20568;-56
2024/02/14 05:50:20;;;;;;;15.63;9.47;;;;;;;3.51;86.82;100985.84;5089017;28;20251;-54
2024/02/14 05:52:49;;;;;;;16.30;9.00;;;;;;;3.49;86.64;100988.31;5085327;28;20224;-51
2024/02/14 05:55:18;;;;;;;15.97;8.87;;;;;;;3.49;85.94;100990.88;5086343;28;20248;-57
2024/02/14 05:57:46;;;;;;;16.90;9.50;;;;;;;3.51;86.10;100990.94;5093531;28;20209;-54
2024/02/14 06:00:14;;;;;;;14.80;9.60;;;;;;;3.51;86.02;100998.56;5093885;28;20310;-56
2024/02/14 06:02:42;;;;;;;14.07;9.10;;;;;;;3.52;86.88;101000.31;5092924;28;20204;-56
2024/02/14 06:05:10;;;;;;;14.07;9.30;;;;;;;3.51;86.46;101002.00;5093170;28;20564;-56
2024/02/14 06:07:38;;;;;;;15.57;8.27;;;;;;;3.50;86.27;100997.72;5094494;28;20224;-60
2024/02/14 06:10:09;;;;;;;12.90;8.13;;;;;;;3.52;86.64;101008.81;5097051;28;20810;-57
2024/02/14 06:12:38;;;;;;;15.07;8.93;;;;;;;3.54;85.67;100996.13;5081172;28;20382;-57
2024/02/14 06:15:08;;;;;;;13.60;8.20;;;;;;;3.58;86.33;101005.59;5093858;28;20536;-50
2024/02/14 06:17:36;;;;;;;13.83;8.50;;;;;;;3.59;85.05;101012.44;5077929;28;20657;-57
2024/02/14 06:20:05;;;;;;;16.07;8.77;;;;;;;3.64;86.30;101015.97;5080846;28;20210;-61
2024/02/14 06:22:34;;;;;;;15.20;8.40;;;;;;;3.67;85.34;101017.75;5088929;28;20205;-55
2024/02/14 06:25:08;;;;;;;18.33;9.73;;;;;;;3.69;86.15;101014.47;5090021;28;20664;-59
2024/02/14 06:27:37;;;;;;;15.27;8.63;;;;;;;3.71;84.18;101015.34;5087979;28;20205;-57
2024/02/14 06:30:06;;;;;;;14.90;9.03;;;;;;;3.78;83.90;101016.41;5085139;28;20201;-54
2024/02/14 06:32:34;;;;;;;17.03;9.70;;;;;;;3.83;85.25;101018.31;5082434;28;20197;-58
2024/02/14 06:35:03;;;;;;;16.47;9.10;;;;;;;3.85;83.81;101010.69;5093030;28;20683;-56
2024/02/14 06:37:31;;;;;;;16.43;9.43;;;;;;;3.91;84.47;101007.50;5085989;28;20280;-57
2024/02/14 06:40:16;;;;;;;17.37;9.27;;;;;;;3.92;84.16;101001.56;5083916;28;20648;-56
2024/02/14 06:42:44;;;;;;;16.07;8.97;;;;;;;3.95;83.63;101009.31;5088022;28;20688;-57
2024/02/14 06:45:12;;;;;;;15.87;9.07;;;;;;;4.00;83.71;101017.94;5091915;28;20289;-57
2024/02/14 06:47:40;;;;;;;11.53;8.03;;;;;;;4.06;82.39;101013.06;5092760;28;20215;-57
2024/02/14 06:50:09;;;;;;;13.90;8.57;;;;;;;4.09;83.08;101013.16;5078201;28;20853;-56
2024/02/14 06:52:38;;;;;;;13.87;9.13;;;;;;;4.12;82.44;101013.22;5089750;28;20972;-56
2024/02/14 06:55:07;;;;;;;16.87;9.17;;;;;;;4.13;81.52;101017.53;5086017;28;20635;-56
2024/02/14 06:57:36;;;;;;;19.60;9.40;;;;;;;4.13;82.64;101012.41;5088401;28;20217;-56
2024/02/14 07:00:06;;;;;;;15.50;9.23;;;;;;;4.16;82.47;101022.72;5088110;28;20205;-55
2024/02/14 07:02:35;;;;;;;16.80;9.50;;;;;;;4.20;81.43;101018.53;5087359;28;20208;-55
2024/02/14 07:05:03;;;;;;;14.27;8.97;;;;;;;4.22;81.99;101022.03;5093706;28;20586;-57
2024/02/14 07:07:31;;;;;;;16.80;9.57;;;;;;;4.27;80.67;101028.13;5087366;28;20258;-54
2024/02/14 07:09:59;;;;;;;12.77;8.13;;;;;;;4.29;80.87;101027.34;5089712;28;20216;-57
2024/02/14 07:12:29;;;;;;;15.67;9.20;;;;;;;4.30;81.47;101034.16;5089279;28;20236;-59
2024/02/14 07:14:58;;;;;;;15.70;9.77;;;;;;;4.32;80.17;101027.44;5091954;28;20201;-54
2024/02/14 07:17:26;;;;;;;16.37;10.43;;;;;;;4.32;80.23;101026.59;5091159;28;20956;-55
2024/02/14 07:19:54;;;;;;;17.47;9.70;;;;;;;4.29;79.63;101023.94;5090869;28;20200;-57
2024/02/14 07:22:22;;;;;;;14.37;9.30;;;;;;;4.29;81.38;101029.91;5085677;28;20316;-55
2024/02/14 07:24:51;;;;;;;15.60;10.30;;;;;;;4.28;80.01;101029.88;5090041;28;20205;-55
2024/02/14 07:27:19;;;;;;;15.03;9.93;;;;;;;4.30;79.68;101025.66;5089554;28;20227;-61
2024/02/14 07:29:47;;;;;;;16.87;10.37;;;;;;;4.30;80.10;101029.06;5091907;28;20587;-53
2024/02/14 07:32:16;;;;;;;15.80;10.20;;;;;;;4.29;81.09;101032.44;5082631;28;20631;-52
2024/02/14 07:34:44;;;;;;;15.93;10.30;;;;;;;4.27;81.05;101031.56;5075159;28;20310;-54
2024/02/14 07:37:14;;;;;;;18.00;10.10;;;;;;;4.24;80.85;101022.94;5092410;28;20653;-59
2024/02/14 07:39:42;;;;;;;15.20;9.97;;;;;;;4.28;79.37;101024.78;5087849;28;20204;-52
2024/02/14 07:42:10;;;;;;;19.10;9.90;;;;;;;4.33;80.81;101029.16;5075864;28;20676;-62
2024/02/14 07:44:38;;;;;;;16.77;9.83;;;;;;;4.37;80.70;101032.66;5086671;28;20251;-57
2024/02/14 07:47:07;;;;;;;16.53;9.20;;;;;;;4.39;79.51;101027.63;5080428;28;20577;-56
2024/02/14 07:49:36;;;;;;;15.03;9.17;;;;;;;4.44;79.40;101037.13;5091704;28;20290;-54
2024/02/14 07:52:05;;;;;;;14.60;9.33;;;;;;;4.47;80.38;101036.38;5089891;28;20207;-58
2024/02/14 07:54:33;;;;;;;15.17;9.37;;;;;;;4.52;79.26;101034.81;5089221;28;20720;-54
2024/02/14 07:57:01;;;;;;;17.00;9.40;;;;;;;4.58;78.92;101040.09;5090587;28;20665;-59
2024/02/14 07:59:29;;;;;;;18.03;9.93;;;;;;;4.63;78.03;101028.31;5080861;28;20266;-58
2024/02/14 08:01:58;;;;;;;14.37;8.87;;;;;;;4.67;78.26;101030.13;5083823;28;20291;-57
2024/02/14 08:04:27;;;;;;;14.37;8.80;;;;;;;4.72;79.23;101033.69;5087361;28;20210;-51
2024/02/14 08:06:56;;;;;;;14.27;9.10;;;;;;;4.81;77.88;101033.09;5095565;28;20197;-53
2024/02/14 08:09:24;;;;;;;14.97;9.07;;;;;;;4.87;78.54;101022.19;5090225;28;20223;-52
2024/02/14 08:11:53;;;;;;;18.00;9.47;;;;;;;4.92;78.17;101030.81;5090828;28;20293;-58
2024/02/14 08:14:22;;;;;;;18.23;10.40;;;;;;;4.94;77.47;101024.94;5075050;28;20815;-59
2024/02/14 08:16:51;;;;;;;16.17;8.67;;;;;;;5.01;77.87;101029.41;5090947;28;20296;-56
2024/02/14 08:19:20;;;;;;;19.63;9.63;;;;;;;5.07;76.45;101023.56;5078600;28;20204;-58
2024/02/14 08:21:48;;;;;;;17.47;8.87;;;;;;;5.12;76.64;101031.34;5088045;28;20211;-56
2024/02/14 08:24:21;;;;;;;16.63;9.00;;;;;;;5.14;76.79;101028.00;5089143;28;20291;-58
2024/02/14 08:26:49;;;;;;;16.93;8.37;;;;;;;5.16;76.17;101030.63;5084364;28;20282;-54
2024/02/14 08:29:18;;;;;;;21.67;9.03;;;;;;;5.18;75.43;101024.72;5081275;28;20213;-56
2024/02/14 08:31:46;;;;;;;16.40;8.43;;;;;;;5.23;75.85;101022.31;5093392;28;20258;-53
2024/02/14 08:34:14;;;;;;;12.73;8.07;;;;;;;5.27;76.71;101024.97;5091304;28;20672;-62
2024/02/14 08:36:43;;;;;;;13.73;7.97;;;;;;;5.32;76.06;101031.03;5091377;28;20688;-60
2024/02/14 08:39:11;;;;;;;10.87;7.07;;;;;;;5.32;76.00;101027.63;5091999;28;20201;-62
2024/02/14 08:41:43;;;;;;;11.07;7.60;;;;;;;5.34;76.07;101033.66;5088244;28;20652;-61
2024/02/14 08:44:11;;;;;;;16.73;7.50;;;;;;;5.38;75.95;101026.94;5087082;28;20208;-60
2024/02/14 08:46:42;;;;;;;13.93;6.90;;;;;;;5.41;75.42;101032.09;5084767;28;20665;-60
2024/02/14 08:49:10;;;;;;;10.60;6.83;;;;;;;5.41;75.05;101032.97;5090542;28;20234;-63
2024/02/14 08:51:39;;;;;;;10.47;7.00;;;;;;;5.47;75.07;101032.25;5090535;28;20204;-60
2024/02/14 08:54:07;;;;;;;11.63;7.30;;;;;;;5.50;74.28;101035.75;5088348;28;20641;-63
2024/02/14 08:56:35;;;;;;;10.43;7.03;;;;;;;5.55;74.84;101035.88;5088071;28;20205;-61
2024/02/14 08:59:06;;;;;;;12.03;6.73;;;;;;;5.59;73.87;101030.00;5085357;28;20205;-63
2024/02/14 09:01:36;;;;;;;9.93;5.80;;;;;;;5.65;73.70;101035.28;5089105;28;20201;-60
2024/02/14 09:04:04;;;;;;;11.00;5.83;;;;;;;5.69;73.55;101031.09;5088810;28;20673;-63
2024/02/14 09:06:32;;;;;;;9.47;6.27;;;;;;;5.73;72.76;101033.75;5088614;28;20204;-62
2024/02/14 09:09:01;;;;;;;9.80;6.20;;;;;;;5.79;72.92;101030.50;5089183;28;20205;-61
2024/02/14 09:11:29;;;;;;;9.50;5.50;;;;;;;5.85;73.41;101032.31;5083058;28;20232;-62
2024/02/14 09:14:02;;;;;;;8.27;5.50;;;;;;;5.92;72.70;101037.66;5087659;28;20204;-62
2024/02/14 09:16:31;;;;;;;10.77;6.17;;;;;;;5.96;72.29;101030.91;5091449;28;20574;-63
2024/02/14 09:18:59;;;;;;;13.87;5.70;;;;;;;6.04;71.23;101037.09;5088558;28;20254;-61
2024/02/14 09:21:28;;;;;;;19.80;9.00;;;;;;;6.12;71.11;101030.44;5085888;28;20250;-59
2024/02/14 09:23:57;;;;;;;12.67;6.90;;;;;;;6.20;71.13;101033.16;5086515;28;20212;-62
2024/02/14 09:26:26;;;;;;;7.73;4.67;;;;;;;6.27;70.95;101022.22;5086047;28;20232;-61
2024/02/14 09:28:54;;;;;;;11.77;5.80;;;;;;;6.34;71.28;101026.66;5087610;28;20201;-65
2024/02/14 09:31:21;;;;;;;8.53;4.20;;;;;;;6.41;70.30;101017.41;5087311;28;20217;-65
2024/02/14 09:33:50;;;;;;;8.00;4.97;;;;;;;6.42;69.48;101026.81;5089756;28;20212;-63
2024/02/14 09:36:19;;;;;;;6.17;3.90;;;;;;;6.46;69.27;101015.81;5089382;28;20224;-61
2024/02/14 09:38:47;;;;;;;6.17;4.00;;;;;;;6.45;68.94;101014.94;5086163;28;20671;-62
2024/02/14 09:41:22;;;;;;;5.83;4.17;;;;;;;6.50;68.24;101012.47;5087910;28;20254;-64
2024/02/14 09:43:50;;;;;;;3.90;2.90;;;;;;;6.55;68.14;101015.97;5089706;28;20192;-61
2024/02/14 09:46:18;;;;;;;5.90;3.53;;;;;;;6.57;67.61;101016.88;5085574;28;20212;-61
2024/02/14 09:48:47;;;;;;;6.33;4.07;;;;;;;6.60;66.82;101009.28;5086539;28;20675;-61
2024/02/14 09:51:17;;;;;;;6.53;3.70;;;;;;;6.61;67.18;101008.44;5087437;28;20235;-62
2024/02/14 09:53:45;;;;;;;6.20;4.10;;;;;;;6.69;65.57;101019.69;5086658;28;20201;-63
2024/02/14 09:56:22;;;;;;;7.57;4.27;;;;;;;6.67;66.33;101021.38;5089673;28;20235;-61
2024/02/14 09:58:56;;;;;;;9.60;4.00;;;;;;;6.65;66.18;101012.78;5091424;28;20824;-63
2024/02/14 10:01:25;;;;;;;8.27;4.17;;;;;;;6.68;65.63;101007.72;5092427;28;20659;-63
2024/02/14 10:03:55;;;;;;;6.87;4.23;;;;;;;6.70;65.61;101006.06;5089685;28;20193;-59
2024/02/14 10:06:25;;;;;;;8.10;4.37;;;;;;;6.70;65.10;101010.28;5090433;28;20235;-60
2024/02/14 10:08:54;;;;;;;9.07;4.27;;;;;;;6.73;65.50;101003.53;5087445;28;20204;-61
2024/02/14 10:11:31;;;;;;;6.23;3.97;;;;;;;6.85;66.05;101007.16;5086633;28;20240;-60
2024/02/14 10:14:02;;;;;;;9.60;5.17;;;;;;;6.95;66.43;101006.50;5088917;28;20208;-62
2024/02/14 10:16:32;;;;;;;6.20;3.93;;;;;;;7.06;66.02;101002.44;5091643;28;20200;-62
2024/02/14 10:19:00;;;;;;;8.60;3.57;;;;;;;7.15;64.24;101002.63;5086441;28;20200;-64
2024/02/14 10:21:33;;;;;;;5.23;3.57;;;;;;;7.17;64.28;101003.50;5089075;28;20204;-64
2024/02/14 10:24:01;;;;;;;7.20;3.57;;;;;;;7.24;64.74;100999.34;5090295;28;20596;-61
2024/02/14 10:26:30;;;;;;;7.53;3.50;;;;;;;7.33;63.18;100998.63;5090388;28;20204;-62
2024/02/14 10:28:59;;;;;;;3.93;2.67;;;;;;;7.37;63.11;100990.19;5085795;28;20205;-63
2024/02/14 10:31:27;;;;;;;3.80;2.80;;;;;;;7.45;61.29;100994.59;5090815;28;20212;-62
2024/02/14 10:33:56;;;;;;;4.10;2.30;;;;;;;7.54;62.01;100993.00;5090848;28;20649;-62
2024/02/14 10:36:25;;;;;;;7.30;2.60;;;;;;;7.54;59.30;100999.00;5090263;28;20246;-62
2024/02/14 10:38:55;;;;;;;3.63;2.20;;;;;;;7.53;57.77;100996.41;5092398;28;20209;-62
2024/02/14 10:41:23;;;;;;;4.37;2.03;;;;;;;7.47;58.11;100989.47;5089228;28;20287;-63
2024/02/14 10:43:51;;;;;;;4.33;2.00;;;;;;;7.46;57.62;100990.31;5091588;28;20661;-62
2024/02/14 10:46:22;;;;;;;6.10;2.23;;;;;;;7.44;58.05;100989.47;5090522;28;20205;-64
2024/02/14 10:48:54;;;;;;;4.60;1.90;;;;;;;7.45;58.27;100979.22;5089866;28;20207;-62
2024/02/14 10:51:26;;;;;;;4.87;2.03;;;;;;;7.54;57.93;100986.19;5088860;28;20217;-63
2024/02/14 10:53:59;;;;;;;3.57;2.10;;;;;;;7.58;57.32;100976.81;5089535;28;20263;-61
2024/02/14 10:56:30;;;;;;;3.70;2.30;;;;;;;7.59;57.95;100976.88;5089098;28;20237;-61
2024/02/14 10:59:02;;;;;;;4.73;2.30;;;;;;;7.59;57.14;100979.44;5088986;28;20215;-62
2024/02/14 11:01:32;;;;;;;2.60;1.90;;;;;;;7.57;56.36;100988.78;5089835;28;20897;-63
2024/02/14 11:04:01;;;;;;;4.47;2.10;;;;;;;7.54;56.68;100972.50;5088060;28;20200;-64
2024/02/14 11:06:29;;;;;;;3.57;2.10;;;;;;;7.52;56.34;100976.75;5086808;28;20684;-64
2024/02/14 11:09:06;;;;;;;4.63;2.17;;;;;;;7.53;56.17;100969.06;5087354;28;20535;-60
2024/02/14 11:11:34;;;;;;;3.77;2.00;;;;;;;7.59;56.51;100966.63;5088149;28;20236;-63
2024/02/14 11:14:07;;;;;;;5.40;1.77;;;;;;;7.66;55.12;100973.56;5087610;28;20201;-65
2024/02/14 11:16:35;;;;;;;3.47;1.70;;;;;;;7.69;55.53;100967.59;5082413;28;20669;-62
2024/02/14 11:19:08;;;;;;;3.13;1.77;;;;;;;7.77;55.71;100960.00;5090981;28;20201;-65
2024/02/14 11:21:38;;;;;;;2.53;1.50;;;;;;;7.78;53.58;100956.63;5088804;28;20197;-63
2024/02/14 11:24:08;;;;;;;4.07;2.23;;;;;;;7.86;54.34;100960.16;5084946;28;20196;-63
2024/02/14 11:26:41;;;;;;;3.97;1.53;;;;;;;7.92;53.49;100966.25;5087422;28;20193;-63
2024/02/14 11:29:14;;;;;;;3.90;1.80;;;;;;;7.93;52.77;100957.69;5084443;28;20291;-62
2024/02/14 11:31:47;;;;;;;3.13;1.63;;;;;;;7.92;53.38;100955.13;5088670;28;20321;-62
2024/02/14 11:34:16;;;;;;;3.67;1.60;;;;;;;7.92;51.94;100958.53;5091435;28;20250;-63